Time;durP1;ratioP1;P1;durP2;ratioP2;P2;SDS_P1;SDS_P2;PMS_P1;PMS_P2;Temp;Humidity;BMP_temperature;BMP_pressure;BME280_temperature;BME280_humidity;BME280_pressure;Samples;Min_cycle;Max_cycle;Signal;HPM_P1;HPM_P2
2023/08/30 00:01:36;;;;;;;27.53;16.47;;;;;;;13.13;100.00;97541.09;5073628;28;20204;-83
2023/08/30 00:04:03;;;;;;;26.67;16.50;;;;;;;13.15;100.00;97539.19;5073714;28;20212;-83
2023/08/30 00:06:29;;;;;;;26.20;16.77;;;;;;;13.15;100.00;97542.66;5073506;28;20224;-83
2023/08/30 00:08:57;;;;;;;24.03;15.63;;;;;;;13.17;100.00;97532.75;5073333;28;20215;-83
2023/08/30 00:11:25;;;;;;;22.13;15.17;;;;;;;13.17;100.00;97531.91;5072995;28;20238;-83
2023/08/30 00:13:51;;;;;;;24.53;14.67;;;;;;;13.15;100.00;97528.56;5073153;28;20683;-83
2023/08/30 00:16:17;;;;;;;23.10;15.77;;;;;;;13.13;100.00;97531.34;5073068;28;20232;-83
2023/08/30 00:18:45;;;;;;;22.47;14.67;;;;;;;13.13;100.00;97528.69;5073264;28;20220;-83
2023/08/30 00:21:11;;;;;;;23.23;15.83;;;;;;;13.13;100.00;97527.84;5073011;28;20208;-83
2023/08/30 00:23:38;;;;;;;22.40;15.10;;;;;;;13.15;100.00;97523.25;5073165;28;20216;-83
2023/08/30 00:26:04;;;;;;;23.03;15.83;;;;;;;13.18;100.00;97525.63;5072887;28;20227;-83
2023/08/30 00:28:32;;;;;;;22.07;14.90;;;;;;;13.15;100.00;97523.25;5072776;28;20675;-83
2023/08/30 00:30:58;;;;;;;24.03;14.77;;;;;;;13.15;100.00;97526.72;5072701;28;20326;-83
2023/08/30 00:33:25;;;;;;;22.77;15.33;;;;;;;13.13;100.00;97520.72;5072948;28;20228;-83
2023/08/30 00:35:57;;;;;;;24.40;15.70;;;;;;;13.15;100.00;97517.94;5072602;28;20239;-82
2023/08/30 00:38:23;;;;;;;22.67;14.83;;;;;;;13.13;100.00;97517.22;5072680;28;20259;-82
2023/08/30 00:40:50;;;;;;;21.67;13.97;;;;;;;13.15;100.00;97512.66;5072267;28;20213;-81
2023/08/30 00:43:16;;;;;;;23.33;15.03;;;;;;;13.13;100.00;97510.13;5072866;28;20209;-82
2023/08/30 00:45:44;;;;;;;23.53;15.37;;;;;;;13.18;100.00;97502.59;5072652;28;20224;-81
2023/08/30 00:48:11;;;;;;;22.17;15.13;;;;;;;13.14;100.00;97498.53;5072705;28;20698;-82
2023/08/30 00:50:38;;;;;;;23.90;16.17;;;;;;;13.14;100.00;97500.38;5071891;28;20287;-82
2023/08/30 00:53:07;;;;;;;23.67;15.10;;;;;;;13.14;100.00;97495.06;5072162;28;20207;-82
2023/08/30 00:55:35;;;;;;;23.90;15.83;;;;;;;13.15;100.00;97499.38;5072105;28;20235;-81
2023/08/30 00:58:03;;;;;;;21.67;14.07;;;;;;;13.12;100.00;97500.50;5072475;28;20560;-82
2023/08/30 01:00:30;;;;;;;19.30;14.10;;;;;;;13.13;100.00;97491.56;5071819;28;20237;-81
2023/08/30 01:02:59;;;;;;;23.63;14.60;;;;;;;13.06;100.00;97494.88;5072335;28;20211;-82
2023/08/30 01:05:25;;;;;;;22.60;14.40;;;;;;;13.08;100.00;97485.81;5072079;28;20717;-81
2023/08/30 01:07:53;;;;;;;20.33;14.20;;;;;;;13.06;100.00;97481.63;5071825;28;20211;-81
2023/08/30 01:10:27;;;;;;;19.40;13.50;;;;;;;13.04;100.00;97483.56;5072106;28;20208;-81
2023/08/30 01:13:02;;;;;;;22.47;15.20;;;;;;;12.97;100.00;97485.91;5071925;28;20207;-82
2023/08/30 01:15:29;;;;;;;21.30;14.63;;;;;;;13.02;100.00;97490.84;5071544;28;20653;-82
2023/08/30 01:17:56;;;;;;;19.63;13.93;;;;;;;12.95;100.00;97494.97;5071924;28;20204;-82
2023/08/30 01:20:26;;;;;;;25.77;14.73;;;;;;;12.89;100.00;97490.22;5071572;28;20212;-82
2023/08/30 01:23:00;;;;;;;20.33;14.07;;;;;;;12.86;100.00;97485.16;5072405;28;20207;-83
2023/08/30 01:25:37;;;;;;;17.37;12.53;;;;;;;12.76;100.00;97479.84;5071999;28;20679;-83
2023/08/30 01:28:06;;;;;;;21.57;14.73;;;;;;;12.72;100.00;97485.56;5072101;28;20211;-81
2023/08/30 01:30:35;;;;;;;19.57;13.40;;;;;;;12.68;100.00;97484.13;5071518;28;20555;-83
2023/08/30 01:33:03;;;;;;;18.30;13.30;;;;;;;12.60;100.00;97489.28;5071704;28;20215;-81
2023/08/30 01:35:32;;;;;;;15.83;11.60;;;;;;;12.50;100.00;97489.25;5071512;28;20211;-83
2023/08/30 01:37:59;;;;;;;19.37;13.00;;;;;;;12.38;100.00;97487.66;5071617;28;20697;-82
2023/08/30 01:40:28;;;;;;;18.63;13.33;;;;;;;12.37;100.00;97490.44;5071275;28;20701;-81
2023/08/30 01:42:54;;;;;;;16.80;12.43;;;;;;;12.29;100.00;97484.97;5071493;28;20666;-81
2023/08/30 01:45:24;;;;;;;15.20;11.23;;;;;;;12.21;100.00;97482.13;5071241;28;20230;-83
2023/08/30 01:47:52;;;;;;;18.93;12.67;;;;;;;12.15;100.00;97487.94;5071768;28;20200;-83
2023/08/30 01:50:20;;;;;;;17.00;13.43;;;;;;;12.13;100.00;97492.53;5071381;28;20235;-82
2023/08/30 01:52:47;;;;;;;18.20;12.47;;;;;;;12.15;100.00;97493.22;5071252;28;20207;-81
2023/08/30 01:55:14;;;;;;;20.57;13.10;;;;;;;12.14;100.00;97492.41;5071226;28;20696;-81
2023/08/30 01:57:41;;;;;;;20.33;13.20;;;;;;;12.14;100.00;97494.22;5071277;28;20713;-81
2023/08/30 02:00:09;;;;;;;20.80;12.97;;;;;;;12.15;100.00;97487.94;5070917;28;20306;-81
2023/08/30 02:02:37;;;;;;;22.90;15.13;;;;;;;12.18;100.00;97493.00;5070671;28;20219;-81
2023/08/30 02:05:04;;;;;;;26.03;16.43;;;;;;;12.24;100.00;97495.13;5071436;28;20207;-83
2023/08/30 02:07:39;;;;;;;25.83;15.93;;;;;;;12.28;100.00;97491.25;5071298;28;20228;-82
2023/08/30 02:10:09;;;;;;;26.13;15.93;;;;;;;12.32;100.00;97490.00;5071040;28;20307;-82
2023/08/30 02:12:40;;;;;;;22.83;14.80;;;;;;;12.33;100.00;97491.66;5071112;28;20218;-82
2023/08/30 02:15:09;;;;;;;22.57;14.57;;;;;;;12.32;100.00;97496.13;5071326;28;20253;-82
2023/08/30 02:17:38;;;;;;;25.43;16.20;;;;;;;12.34;100.00;97498.66;5071005;28;20250;-82
2023/08/30 02:20:06;;;;;;;25.60;15.00;;;;;;;12.32;100.00;97500.59;5070766;28;20211;-82
2023/08/30 02:22:33;;;;;;;21.23;13.53;;;;;;;12.26;100.00;97501.97;5070998;28;20223;-82
2023/08/30 02:25:01;;;;;;;21.47;13.70;;;;;;;12.22;100.00;97500.53;5071014;28;20299;-82
2023/08/30 02:27:28;;;;;;;23.20;14.23;;;;;;;12.17;100.00;97497.44;5070859;28;20254;-82
2023/08/30 02:29:54;;;;;;;25.00;15.47;;;;;;;12.14;100.00;97497.72;5070802;28;20619;-82
2023/08/30 02:32:21;;;;;;;23.63;15.13;;;;;;;12.13;100.00;97497.84;5070962;28;20210;-82
2023/08/30 02:34:52;;;;;;;20.77;13.93;;;;;;;12.10;100.00;97495.47;5071028;28;20207;-82
2023/08/30 02:37:18;;;;;;;20.30;12.73;;;;;;;12.07;100.00;97495.72;5070807;28;20232;-82
2023/08/30 02:39:45;;;;;;;18.47;13.00;;;;;;;12.04;100.00;97502.09;5070508;28;20207;-82
2023/08/30 02:42:12;;;;;;;18.00;12.27;;;;;;;12.02;100.00;97497.91;5071003;28;20570;-82
2023/08/30 02:44:38;;;;;;;18.70;12.40;;;;;;;11.93;100.00;97501.34;5070863;28;20218;-81
2023/08/30 02:47:05;;;;;;;19.17;13.43;;;;;;;11.92;100.00;97507.63;5070668;28;20227;-81
2023/08/30 02:49:31;;;;;;;19.07;12.33;;;;;;;11.90;100.00;97498.94;5070187;28;20222;-81
2023/08/30 02:51:59;;;;;;;18.23;12.47;;;;;;;11.92;100.00;97502.31;5070405;28;20215;-81
2023/08/30 02:54:25;;;;;;;20.10;13.47;;;;;;;11.90;100.00;97498.94;5070521;28;20582;-81
2023/08/30 02:56:52;;;;;;;21.87;13.47;;;;;;;11.94;100.00;97500.38;5070572;28;20238;-81
2023/08/30 02:59:18;;;;;;;22.77;14.23;;;;;;;12.00;100.00;97499.84;5070382;28;20308;-81
2023/08/30 03:01:44;;;;;;;22.50;14.97;;;;;;;12.06;100.00;97494.03;5070528;28;20210;-81
2023/08/30 03:04:10;;;;;;;23.60;14.57;;;;;;;12.10;100.00;97495.47;5070533;28;20218;-81
2023/08/30 03:06:37;;;;;;;24.97;14.70;;;;;;;12.14;100.00;97502.16;5070481;28;20227;-82
2023/08/30 03:09:06;;;;;;;22.20;14.77;;;;;;;12.21;100.00;97495.34;5070740;28;20230;-83
2023/08/30 03:11:33;;;;;;;26.83;16.00;;;;;;;12.29;100.00;97484.97;5070793;28;20214;-83
2023/08/30 03:13:59;;;;;;;27.63;16.33;;;;;;;12.36;100.00;97483.47;5071030;28;20682;-83
2023/08/30 03:16:26;;;;;;;27.77;16.53;;;;;;;12.47;100.00;97478.06;5074069;28;20690;-83
2023/08/30 03:18:52;;;;;;;22.67;14.40;;;;;;;12.51;100.00;97482.13;5074177;28;20207;-82
2023/08/30 03:21:18;;;;;;;23.20;14.90;;;;;;;12.53;100.00;97475.72;5073856;28;20216;-82
2023/08/30 03:23:45;;;;;;;29.03;16.27;;;;;;;12.57;100.00;97465.69;5074514;28;20752;-82
2023/08/30 03:26:15;;;;;;;23.40;14.80;;;;;;;12.63;100.00;97465.13;5074183;28;20250;-82
2023/08/30 03:28:42;;;;;;;26.57;16.70;;;;;;;12.64;100.00;97466.81;5074171;28;20286;-82
2023/08/30 03:31:13;;;;;;;29.50;17.17;;;;;;;12.67;100.00;97459.47;5073669;28;20208;-82
2023/08/30 03:33:41;;;;;;;28.50;17.43;;;;;;;12.70;100.00;97458.31;5073825;28;20214;-82
2023/08/30 03:36:08;;;;;;;26.87;16.83;;;;;;;12.71;100.00;97460.03;5086364;22;20277;-91
2023/08/30 03:38:34;;;;;;;26.63;16.40;;;;;;;12.72;100.00;97464.34;5055159;28;20227;-92
2023/08/30 03:41:01;;;;;;;30.43;17.87;;;;;;;12.72;100.00;97461.69;5054359;28;20212;-91
2023/08/30 03:43:28;;;;;;;28.47;17.40;;;;;;;12.73;100.00;97463.38;5054863;28;20208;-92
2023/08/30 03:45:55;;;;;;;29.40;17.50;;;;;;;12.75;100.00;97464.06;5055438;28;20209;-92
2023/08/30 03:48:21;;;;;;;27.60;16.57;;;;;;;12.75;100.00;97459.63;5054516;28;20209;-90
2023/08/30 03:50:48;;;;;;;25.17;16.37;;;;;;;12.76;100.00;97463.94;5054430;28;20208;-90
2023/08/30 03:53:14;;;;;;;24.80;15.73;;;;;;;12.77;100.00;97468.25;5054839;28;20211;-92
2023/08/30 03:55:41;;;;;;;27.13;16.87;;;;;;;12.78;100.00;97469.09;5054154;28;20300;-92
2023/08/30 03:58:08;;;;;;;27.53;16.93;;;;;;;12.79;100.00;97462.81;5054028;28;20224;-92
2023/08/30 04:00:38;;;;;;;26.63;16.30;;;;;;;12.80;100.00;97459.19;5054141;28;20220;-92
2023/08/30 04:03:05;;;;;;;26.57;15.37;;;;;;;12.77;100.00;97467.44;5054296;28;20196;-91
2023/08/30 04:05:33;;;;;;;23.53;14.50;;;;;;;12.77;100.00;97472.75;5054394;28;20209;-90
2023/08/30 04:08:00;;;;;;;27.17;15.77;;;;;;;12.76;100.00;97469.25;5054298;28;20259;-92
2023/08/30 04:10:26;;;;;;;23.67;14.33;;;;;;;12.77;100.00;97475.41;5053692;28;20205;-92
2023/08/30 04:12:53;;;;;;;26.53;16.77;;;;;;;12.76;100.00;97468.38;5054075;28;20216;-92
2023/08/30 04:15:19;;;;;;;27.57;16.17;;;;;;;12.76;100.00;97463.94;5053883;28;20213;-92
2023/08/30 04:17:47;;;;;;;25.13;15.50;;;;;;;12.74;100.00;97471.19;5053987;28;20596;-91
2023/08/30 04:20:13;;;;;;;23.83;14.60;;;;;;;12.76;100.00;97471.03;5053763;28;20200;-90
2023/08/30 04:22:40;;;;;;;23.13;14.90;;;;;;;12.75;100.00;97474.66;5054038;28;20212;-90
2023/08/30 04:25:09;;;;;;;27.57;16.03;;;;;;;12.76;100.00;97468.38;5054081;28;20235;-90
2023/08/30 04:27:35;;;;;;;25.97;15.57;;;;;;;12.78;100.00;97471.75;5063652;28;20216;-90
2023/08/30 04:30:02;;;;;;;24.10;13.77;;;;;;;12.72;100.00;97467.00;5078777;28;20199;-90
2023/08/30 04:32:29;;;;;;;20.97;13.60;;;;;;;12.69;100.00;97468.09;5079050;28;20196;-91
2023/08/30 04:34:57;;;;;;;21.77;13.93;;;;;;;12.64;100.00;97469.47;5075904;28;20218;-90
2023/08/30 04:37:23;;;;;;;19.83;12.93;;;;;;;12.61;100.00;97472.41;5069981;28;20236;-90
2023/08/30 04:39:53;;;;;;;21.83;13.97;;;;;;;12.60;100.00;97470.72;5070141;28;20218;-90
2023/08/30 04:42:19;;;;;;;21.10;13.40;;;;;;;12.57;100.00;97473.63;5066255;28;20208;-90
2023/08/30 04:44:46;;;;;;;24.47;15.63;;;;;;;12.57;100.00;97473.63;5053358;28;20231;-91
2023/08/30 04:47:12;;;;;;;22.90;14.80;;;;;;;12.53;100.00;97477.53;5053445;28;20580;-92
2023/08/30 04:49:39;;;;;;;23.37;14.43;;;;;;;12.52;100.00;97470.53;5053083;28;20208;-90
2023/08/30 04:52:07;;;;;;;24.10;15.20;;;;;;;12.52;100.00;97468.75;5053394;28;20208;-91
2023/08/30 04:54:33;;;;;;;25.03;14.53;;;;;;;12.52;100.00;97474.03;5053078;28;20226;-90
2023/08/30 04:57:00;;;;;;;24.40;15.63;;;;;;;12.56;100.00;97470.16;5052915;28;20239;-89
2023/08/30 04:59:27;;;;;;;21.27;14.47;;;;;;;12.60;100.00;97471.56;5052860;28;20200;-91
2023/08/30 05:01:53;;;;;;;24.77;15.70;;;;;;;12.65;100.00;97471.16;5053257;28;20297;-91
2023/08/30 05:04:20;;;;;;;24.97;15.80;;;;;;;12.66;100.00;97463.06;5053060;28;20218;-90
2023/08/30 05:06:46;;;;;;;22.63;14.23;;;;;;;12.71;100.00;97466.16;5052842;28;20603;-92
2023/08/30 05:09:15;;;;;;;25.57;15.60;;;;;;;12.69;100.00;97467.25;5052538;28;20212;-91
2023/08/30 05:11:41;;;;;;;22.20;14.80;;;;;;;12.66;100.00;97464.88;5052625;28;20266;-91
2023/08/30 05:14:12;;;;;;;20.60;13.80;;;;;;;12.66;100.00;97463.06;5052844;28;20204;-91
2023/08/30 05:16:39;;;;;;;22.57;14.63;;;;;;;12.66;100.00;97472.84;5052754;28;20236;-90
2023/08/30 05:19:05;;;;;;;23.97;14.87;;;;;;;12.69;100.00;97472.56;5052936;28;20208;-91
2023/08/30 05:21:32;;;;;;;24.77;14.43;;;;;;;12.71;100.00;97470.63;5052723;28;20207;-90
2023/08/30 05:23:58;;;;;;;28.50;16.80;;;;;;;12.74;100.00;97473.84;5053317;28;20215;-91
2023/08/30 05:26:26;;;;;;;27.17;16.17;;;;;;;12.80;100.00;97477.75;5052442;28;20234;-90
2023/08/30 05:28:52;;;;;;;28.57;16.43;;;;;;;12.85;100.00;97464.94;5052827;28;20212;-90
2023/08/30 05:31:19;;;;;;;31.83;17.57;;;;;;;12.89;100.00;97469.00;5052782;28;20216;-90
2023/08/30 05:33:45;;;;;;;24.83;14.90;;;;;;;12.94;100.00;97466.75;5052670;28;20208;-91
2023/08/30 05:36:12;;;;;;;23.63;15.60;;;;;;;12.99;100.00;97459.25;5052606;28;20240;-90
2023/08/30 05:38:38;;;;;;;28.50;17.13;;;;;;;13.02;100.00;97465.13;5056434;28;20228;-91
2023/08/30 05:41:05;;;;;;;30.20;16.20;;;;;;;13.07;100.00;97462.09;5077528;28;20212;-90
2023/08/30 05:43:33;;;;;;;27.97;16.57;;;;;;;13.10;100.00;97462.66;5077845;28;20231;-90
2023/08/30 05:46:02;;;;;;;26.37;16.33;;;;;;;13.16;100.00;97469.22;5077620;28;20249;-91
2023/08/30 05:48:28;;;;;;;26.33;16.67;;;;;;;13.16;100.00;97458.59;5077819;28;20197;-90
2023/08/30 05:50:55;;;;;;;25.23;15.53;;;;;;;13.18;100.00;97461.94;5075012;28;20283;-90
2023/08/30 05:53:22;;;;;;;28.13;15.17;;;;;;;13.21;100.00;97459.03;5074886;28;20513;-90
2023/08/30 05:55:48;;;;;;;23.87;15.47;;;;;;;13.25;100.00;97455.97;5074455;28;20229;-91
2023/08/30 05:58:15;;;;;;;25.93;16.60;;;;;;;13.28;100.00;97460.16;5074434;28;20240;-92
2023/08/30 06:00:43;;;;;;;29.63;17.07;;;;;;;13.32;100.00;97462.38;5069685;28;20208;-90
2023/08/30 06:03:10;;;;;;;24.77;15.57;;;;;;;13.35;100.00;97463.91;5052160;28;20207;-90
2023/08/30 06:05:37;;;;;;;27.37;17.13;;;;;;;13.39;100.00;97457.38;5052268;28;20227;-90
2023/08/30 06:08:04;;;;;;;29.80;17.67;;;;;;;13.49;100.00;97474.09;5052446;28;20213;-91
2023/08/30 06:10:31;;;;;;;26.73;17.13;;;;;;;13.49;100.00;97469.66;5052887;28;20267;-91
2023/08/30 06:12:57;;;;;;;22.40;15.10;;;;;;;13.52;100.00;97463.22;5052487;28;20227;-92
2023/08/30 06:15:24;;;;;;;24.00;14.63;;;;;;;13.53;100.00;97465.75;5051574;28;20221;-77
2023/08/30 06:17:52;;;;;;;20.60;13.93;;;;;;;13.60;100.00;97468.66;5051083;28;20246;-75
2023/08/30 06:20:19;;;;;;;23.30;14.90;;;;;;;13.61;100.00;97473.84;5050891;28;20580;-76
2023/08/30 06:22:45;;;;;;;26.63;17.17;;;;;;;13.63;100.00;97477.19;5051454;28;20211;-74
2023/08/30 06:25:12;;;;;;;25.30;16.17;;;;;;;13.66;100.00;97473.41;5051220;28;20212;-78
2023/08/30 06:27:43;;;;;;;24.27;16.03;;;;;;;13.69;100.00;97468.66;5051372;28;20230;-76
2023/08/30 06:30:11;;;;;;;23.07;15.53;;;;;;;13.76;100.00;97466.28;5051041;28;20240;-78
2023/08/30 06:32:37;;;;;;;22.37;14.00;;;;;;;13.80;100.00;97462.34;5051119;28;20670;-78
2023/08/30 06:35:05;;;;;;;28.60;16.67;;;;;;;13.84;100.00;97464.59;5051027;28;20219;-77
2023/08/30 06:37:32;;;;;;;25.93;16.20;;;;;;;13.92;100.00;97472.69;5050770;28;20229;-77
2023/08/30 06:40:00;;;;;;;24.73;15.80;;;;;;;14.00;100.00;97464.84;5050811;28;20210;-76
2023/08/30 06:42:26;;;;;;;24.30;14.67;;;;;;;14.06;100.00;97463.44;5051146;28;20214;-79
2023/08/30 06:44:52;;;;;;;24.90;16.83;;;;;;;14.10;100.00;97460.34;5050923;28;20213;-78
2023/08/30 06:47:19;;;;;;;21.50;14.53;;;;;;;14.17;100.00;97461.44;5051078;28;20598;-77
2023/08/30 06:49:45;;;;;;;20.40;14.33;;;;;;;14.19;100.00;97459.50;5052857;28;20206;-77
2023/08/30 06:52:13;;;;;;;22.70;15.27;;;;;;;14.28;100.00;97463.13;5055254;28;20214;-75
2023/08/30 06:54:40;;;;;;;22.13;15.17;;;;;;;14.29;100.00;97464.81;5052984;28;20301;-76
2023/08/30 06:57:06;;;;;;;19.57;14.67;;;;;;;14.33;100.00;97460.88;5053947;28;20237;-75
2023/08/30 06:59:33;;;;;;;18.70;13.63;;;;;;;14.40;100.00;97467.28;5054005;28;20695;-81
2023/08/30 07:02:00;;;;;;;21.80;15.00;;;;;;;14.38;100.00;97461.28;5053474;28;20245;-75
2023/08/30 07:04:27;;;;;;;19.93;14.13;;;;;;;14.51;100.00;97456.47;5053567;28;20220;-75
2023/08/30 07:06:53;;;;;;;15.93;12.93;;;;;;;14.55;100.00;97463.16;5053803;28;20299;-75
2023/08/30 07:09:23;;;;;;;17.40;12.30;;;;;;;14.64;100.00;97459.63;5053638;28;20213;-76
2023/08/30 07:11:49;;;;;;;17.13;11.97;;;;;;;14.67;100.00;97462.00;5053654;28;20210;-76
2023/08/30 07:14:16;;;;;;;15.83;11.93;;;;;;;14.71;100.00;97458.88;5053816;28;20211;-76
2023/08/30 07:16:42;;;;;;;16.23;12.27;;;;;;;14.69;100.00;97466.19;5053270;28;20262;-76
2023/08/30 07:19:09;;;;;;;16.83;12.07;;;;;;;14.75;100.00;97470.06;5053640;28;20230;-77
2023/08/30 07:21:38;;;;;;;13.47;11.33;;;;;;;14.80;100.00;97473.13;5053589;28;20217;-74
2023/08/30 07:24:06;;;;;;;15.50;11.27;;;;;;;14.81;100.00;97477.47;5053636;28;20695;-75
2023/08/30 07:26:34;;;;;;;13.17;11.43;;;;;;;14.87;100.00;97471.53;5053411;28;20238;-76
2023/08/30 07:29:00;;;;;;;15.13;12.00;;;;;;;14.87;100.00;97476.88;5053431;28;20579;-75
2023/08/30 07:31:27;;;;;;;16.73;13.23;;;;;;;14.76;100.00;97477.06;5053098;28;20224;-75
2023/08/30 07:33:53;;;;;;;15.73;12.37;;;;;;;14.83;100.00;97476.31;5053245;28;20218;-75
2023/08/30 07:36:20;;;;;;;15.73;12.53;;;;;;;14.86;100.00;97483.19;5053380;28;20239;-77
2023/08/30 07:38:46;;;;;;;13.53;11.47;;;;;;;14.83;100.00;97473.66;5053578;28;20235;-75
2023/08/30 07:41:12;;;;;;;16.63;11.97;;;;;;;14.87;100.00;97488.38;5053017;28;20222;-76
2023/08/30 07:43:40;;;;;;;15.87;10.80;;;;;;;14.89;100.00;97485.53;5052837;28;20215;-76
2023/08/30 07:46:07;;;;;;;13.40;10.97;;;;;;;14.92;100.00;97488.72;5053715;28;20324;-76
2023/08/30 07:48:33;;;;;;;15.03;11.13;;;;;;;15.04;100.00;97492.03;5053422;28;20211;-75
2023/08/30 07:51:00;;;;;;;14.57;11.43;;;;;;;15.05;100.00;97491.91;5053748;28;20560;-76
2023/08/30 07:53:26;;;;;;;14.93;10.73;;;;;;;15.13;100.00;97488.47;5054005;28;20234;-75
2023/08/30 07:55:53;;;;;;;14.33;10.73;;;;;;;15.18;100.00;97486.19;5053326;28;20207;-75
2023/08/30 07:58:19;;;;;;;13.33;10.90;;;;;;;15.20;100.00;97484.22;5053668;28;20269;-75
2023/08/30 08:00:51;;;;;;;14.13;10.00;;;;;;;15.25;100.00;97485.47;5051591;28;20211;-75
2023/08/30 08:03:18;;;;;;;12.63;10.23;;;;;;;15.29;100.00;97484.19;5047087;28;20200;-75
2023/08/30 08:05:44;;;;;;;11.93;10.07;;;;;;;15.34;100.00;97475.78;5048592;28;20659;-75
2023/08/30 08:08:11;;;;;;;12.20;9.90;;;;;;;15.43;100.00;97473.03;5051842;28;20219;-76
2023/08/30 08:10:38;;;;;;;11.03;9.17;;;;;;;15.54;100.00;97469.31;5052505;28;20216;-74
2023/08/30 08:13:05;;;;;;;11.17;9.87;;;;;;;15.62;100.00;97474.69;5053579;28;20212;-75
2023/08/30 08:15:32;;;;;;;11.83;9.60;;;;;;;15.74;100.00;97470.81;5053494;28;20207;-76
2023/08/30 08:18:00;;;;;;;12.17;9.13;;;;;;;15.85;100.00;97478.56;5051412;28;20327;-76
2023/08/30 08:20:27;;;;;;;10.17;9.03;;;;;;;15.98;100.00;97481.66;5048055;28;20576;-75
2023/08/30 08:22:53;;;;;;;11.43;9.53;;;;;;;16.07;100.00;97486.91;5053197;28;20226;-74
2023/08/30 08:25:21;;;;;;;10.73;9.10;;;;;;;16.19;100.00;97483.84;5052965;28;20207;-76
2023/08/30 08:27:48;;;;;;;11.57;9.40;;;;;;;16.29;100.00;97484.59;5053003;28;20235;-75
2023/08/30 08:30:15;;;;;;;10.07;8.97;;;;;;;16.25;100.00;97496.53;5052789;28;20208;-77
2023/08/30 08:32:41;;;;;;;8.30;7.40;;;;;;;16.41;100.00;97496.66;5052841;28;20219;-76
2023/08/30 08:35:09;;;;;;;10.17;8.10;;;;;;;16.42;100.00;97500.19;5050447;28;20603;-76
2023/08/30 08:37:36;;;;;;;8.20;7.27;;;;;;;16.56;100.00;97502.25;5048178;28;20611;-76
2023/08/30 08:40:08;;;;;;;8.33;7.23;;;;;;;16.65;100.00;97499.47;5050118;28;20232;-75
2023/08/30 08:42:35;;;;;;;8.07;7.20;;;;;;;16.67;100.00;97502.00;5052031;28;20211;-75
2023/08/30 08:45:03;;;;;;;8.20;7.30;;;;;;;16.72;100.00;97503.22;5052040;28;20659;-75
2023/08/30 08:47:31;;;;;;;6.73;6.07;;;;;;;16.65;100.00;97504.81;5053490;28;20224;-75
2023/08/30 08:49:58;;;;;;;6.97;6.37;;;;;;;16.59;100.00;97510.78;5071288;28;20309;-74
2023/08/30 08:52:27;;;;;;;6.80;6.10;;;;;;;16.58;100.00;97516.31;5061497;28;20215;-75
2023/08/30 08:54:55;;;;;;;6.33;5.73;;;;;;;16.59;100.00;97510.78;5058160;28;20200;-75
2023/08/30 08:57:22;;;;;;;5.50;5.00;;;;;;;16.57;100.00;97511.97;5072101;28;20234;-76
2023/08/30 08:59:50;;;;;;;6.67;5.47;;;;;;;16.54;100.00;97513.13;5069918;28;20234;-76
2023/08/30 09:02:17;;;;;;;6.30;5.70;;;;;;;16.54;100.00;97510.44;5051970;28;20796;-76
2023/08/30 09:04:44;;;;;;;7.30;5.77;;;;;;;16.58;100.00;97508.28;5051634;28;20307;-75
2023/08/30 09:07:11;;;;;;;5.93;5.27;;;;;;;16.60;100.00;97512.47;5049368;28;20236;-76
2023/08/30 09:09:40;;;;;;;6.43;5.83;;;;;;;16.70;100.00;97513.19;5050772;28;20666;-75
2023/08/30 09:12:07;;;;;;;7.90;5.50;;;;;;;16.78;100.00;97505.25;5050923;28;20219;-75
2023/08/30 09:14:33;;;;;;;5.80;5.20;;;;;;;16.93;100.00;97508.13;5051529;28;20204;-75
2023/08/30 09:17:02;;;;;;;5.43;4.93;;;;;;;17.05;100.00;97513.03;5051008;28;20251;-75
2023/08/30 09:19:30;;;;;;;10.50;5.27;;;;;;;17.27;100.00;97504.44;5050330;28;20747;-76
2023/08/30 09:21:58;;;;;;;7.67;5.07;;;;;;;17.43;100.00;97506.34;5049913;28;20212;-75
2023/08/30 09:24:25;;;;;;;4.87;4.33;;;;;;;17.51;100.00;97504.53;5051376;28;20204;-76
2023/08/30 09:26:55;;;;;;;5.73;4.83;;;;;;;17.67;100.00;97515.22;5051072;28;20250;-76
2023/08/30 09:29:23;;;;;;;4.87;4.47;;;;;;;17.78;100.00;97509.56;5058961;28;20712;-78
2023/08/30 09:31:53;;;;;;;5.07;4.20;;;;;;;17.88;100.00;97504.06;5050571;28;20208;-76
2023/08/30 09:34:23;;;;;;;4.83;4.33;;;;;;;17.98;100.00;97508.25;5050524;28;20563;-75
2023/08/30 09:36:50;;;;;;;4.73;4.33;;;;;;;18.04;100.00;97512.91;5070335;22;20778;-83
2023/08/30 09:39:16;;;;;;;4.83;4.43;;;;;;;18.16;100.00;97495.53;5068421;28;20300;-80
2023/08/30 09:41:44;;;;;;;4.73;4.33;;;;;;;18.27;100.00;97489.84;5055201;28;20560;-77
2023/08/30 09:44:12;;;;;;;4.30;3.90;;;;;;;18.33;100.00;97491.88;5070222;28;20234;-79
2023/08/30 09:46:43;;;;;;;4.20;3.80;;;;;;;18.37;100.00;97495.91;5070025;28;20234;-86
2023/08/30 09:49:10;;;;;;;5.33;4.17;;;;;;;18.54;100.00;97488.66;5070196;28;20199;-86
2023/08/30 09:51:42;;;;;;;4.30;4.00;;;;;;;18.58;100.00;97480.13;5070120;28;20677;-86
2023/08/30 09:54:15;;;;;;;4.37;3.83;;;;;;;18.65;100.00;97481.09;5070292;28;20213;-84
2023/08/30 09:56:43;;;;;;;4.27;3.87;;;;;;;18.78;100.00;97477.91;5075936;28;20250;-86
2023/08/30 09:59:12;;;;;;;3.63;3.33;;;;;;;18.87;100.00;97483.06;5057646;28;20720;-86
2023/08/30 10:01:39;;;;;;;4.30;3.67;;;;;;;18.89;100.00;97483.69;5066221;28;20302;-81
2023/08/30 10:04:07;;;;;;;4.57;3.80;;;;;;;18.85;100.00;97471.69;5071074;28;20208;-85
2023/08/30 10:06:34;;;;;;;3.70;3.23;;;;;;;18.77;100.00;97474.38;5054368;28;20327;-84
2023/08/30 10:09:03;;;;;;;4.30;3.30;;;;;;;18.78;100.00;97492.09;5051736;28;20201;-88
2023/08/30 10:11:30;;;;;;;3.80;3.47;;;;;;;18.82;100.00;97482.72;5066468;28;20208;-85
2023/08/30 10:13:59;;;;;;;3.67;3.37;;;;;;;18.91;100.00;97462.94;5052904;28;20212;-86
2023/08/30 10:16:28;;;;;;;3.77;3.47;;;;;;;18.92;100.00;97458.41;5050254;28;20235;-82
2023/08/30 10:19:02;;;;;;;3.43;3.10;;;;;;;18.94;100.00;97449.22;5048749;28;20285;-90
2023/08/30 10:21:30;;;;;;;3.10;2.37;;;;;;;18.99;100.00;97460.25;5051257;28;20215;-90
2023/08/30 10:23:58;;;;;;;3.33;2.93;;;;;;;19.01;97.29;97438.66;5050669;28;20209;-89
2023/08/30 10:26:27;;;;;;;3.37;3.07;;;;;;;19.11;96.19;97432.06;5051815;28;20224;-92
2023/08/30 10:28:56;;;;;;;3.77;3.10;;;;;;;19.18;95.98;97424.97;5051695;28;20204;-87
2023/08/30 10:31:22;;;;;;;3.40;2.93;;;;;;;19.20;96.02;97422.97;5055060;28;20212;-87
2023/08/30 10:33:51;;;;;;;3.47;2.80;;;;;;;19.32;96.12;97426.94;5051871;28;20213;-88
2023/08/30 10:36:24;;;;;;;2.80;2.50;;;;;;;19.43;97.01;97431.88;5051108;28;20208;-89
2023/08/30 10:38:51;;;;;;;3.20;2.87;;;;;;;19.57;95.64;97424.94;5051234;28;20235;-86
2023/08/30 10:41:22;;;;;;;2.70;2.50;;;;;;;19.62;93.30;97418.00;5051396;28;20211;-88
2023/08/30 10:43:52;;;;;;;2.70;2.50;;;;;;;19.61;91.49;97400.25;5051804;28;20269;-87
2023/08/30 10:46:29;;;;;;;3.07;2.70;;;;;;;19.69;92.28;97413.59;5051419;28;20669;-90
2023/08/30 10:48:58;;;;;;;2.60;2.30;;;;;;;19.82;92.60;97413.81;5051054;28;20208;-87
2023/08/30 10:51:37;;;;;;;2.60;2.40;;;;;;;19.95;92.68;97418.59;5050933;28;20211;-84
2023/08/30 10:54:11;;;;;;;2.60;2.40;;;;;;;19.98;89.37;97402.97;5050916;28;20214;-83
2023/08/30 10:56:47;;;;;;;2.80;2.40;;;;;;;20.10;87.32;97403.38;5048575;28;20881;-85
2023/08/30 10:59:17;;;;;;;2.60;2.40;;;;;;;20.23;85.55;97391.00;5047720;28;20288;-83
2023/08/30 11:01:44;;;;;;;2.83;2.63;;;;;;;20.28;84.49;97393.97;5047941;28;20212;-79
2023/08/30 11:04:13;;;;;;;2.60;2.40;;;;;;;20.38;81.92;97378.44;5049573;28;20212;-80
2023/08/30 11:06:40;;;;;;;2.50;2.30;;;;;;;20.56;75.28;97357.44;5050783;28;20259;-80
2023/08/30 11:09:08;;;;;;;2.50;2.30;;;;;;;20.70;75.41;97364.63;5049444;28;20284;-80
2023/08/30 11:11:35;;;;;;;2.70;2.43;;;;;;;20.68;73.60;97353.25;5047837;28;20568;-80
2023/08/30 11:14:05;;;;;;;2.90;2.70;;;;;;;20.68;72.36;97355.94;5047579;28;20212;-80
2023/08/30 11:16:31;;;;;;;2.93;2.47;;;;;;;20.76;74.50;97366.56;5047989;28;20224;-80